createdAt,value
2018-05-18T00:01:58.194Z,101604.53
2018-05-18T00:04:33.426Z,101604.40
2018-05-18T00:07:08.314Z,101602.14
2018-05-18T00:09:43.530Z,101602.47
2018-05-18T00:12:19.106Z,101601.50
2018-05-18T00:14:54.110Z,101590.69
2018-05-18T00:17:29.343Z,101591.62
2018-05-18T00:20:03.774Z,101593.94
2018-05-18T00:22:39.141Z,101598.31
2018-05-18T00:25:14.355Z,101595.23
2018-05-18T00:27:49.489Z,101596.38
2018-05-18T00:30:26.264Z,101591.25
2018-05-18T00:33:01.129Z,101592.89
2018-05-18T00:35:35.694Z,101595.28
2018-05-18T00:38:10.574Z,101593.00
2018-05-18T00:40:45.525Z,101588.55
2018-05-18T00:43:20.475Z,101595.02
2018-05-18T00:45:55.174Z,101601.11
2018-05-18T00:48:30.234Z,101593.27
2018-05-18T00:51:05.170Z,101593.78
2018-05-18T00:53:40.074Z,101592.83
2018-05-18T00:56:16.517Z,101597.56
2018-05-18T00:58:51.663Z,101597.27
2018-05-18T01:01:26.592Z,101594.00
2018-05-18T01:04:01.442Z,101600.87
2018-05-18T01:06:36.211Z,101603.45
2018-05-18T01:09:11.138Z,101597.41
2018-05-18T01:11:46.202Z,101595.34
2018-05-18T01:14:21.237Z,101602.27
2018-05-18T01:16:55.895Z,101596.16
2018-05-18T01:19:31.173Z,101602.48
2018-05-18T01:22:06.190Z,101600.36
2018-05-18T01:24:40.622Z,101597.33
2018-05-18T01:27:16.585Z,101595.80
2018-05-18T01:29:51.251Z,101599.51
2018-05-18T01:32:26.524Z,101601.98
2018-05-18T01:35:01.419Z,101596.72
2018-05-18T01:37:36.421Z,101597.35
2018-05-18T01:40:11.741Z,101591.73
2018-05-18T01:42:46.755Z,101591.20
2018-05-18T01:45:21.693Z,101593.23
2018-05-18T01:47:56.730Z,101586.39
2018-05-18T01:50:31.854Z,101589.08
2018-05-18T01:53:06.914Z,101584.05
2018-05-18T01:55:42.346Z,101587.73
2018-05-18T01:58:16.877Z,101587.47
2018-05-18T02:00:52.261Z,101591.46
2018-05-18T02:03:27.381Z,101589.84
2018-05-18T02:06:02.310Z,101587.58
2018-05-18T02:08:37.639Z,101589.04
2018-05-18T02:11:12.630Z,101593.84
2018-05-18T02:13:47.479Z,101593.55
2018-05-18T02:16:23.321Z,101594.95
2018-05-18T02:18:59.273Z,101599.90
2018-05-18T02:21:34.349Z,101606.84
2018-05-18T02:24:08.429Z,101598.25
2018-05-18T02:26:43.488Z,101601.33
2018-05-18T02:29:18.638Z,101603.75
2018-05-18T02:31:53.680Z,101598.27
2018-05-18T02:34:28.926Z,101584.46
2018-05-18T02:37:03.866Z,101594.28
2018-05-18T02:39:39.175Z,101591.49
2018-05-18T02:42:14.367Z,101583.94
2018-05-18T02:44:49.565Z,101595.95
2018-05-18T02:47:24.646Z,101593.31
2018-05-18T02:49:59.527Z,101584.55
2018-05-18T02:52:34.419Z,101596.45
2018-05-18T02:55:09.420Z,101592.56
2018-05-18T02:57:44.410Z,101588.65
2018-05-18T03:00:19.339Z,101590.83
2018-05-18T03:02:54.479Z,101587.64
2018-05-18T03:05:29.698Z,101587.13
2018-05-18T03:08:04.679Z,101586.34
2018-05-18T03:10:39.650Z,101588.75
2018-05-18T03:13:24.042Z,101591.27
2018-05-18T03:15:58.545Z,101591.17
2018-05-18T03:18:33.551Z,101599.02
2018-05-18T03:21:08.614Z,101592.56
2018-05-18T03:23:43.434Z,101594.62
2018-05-18T03:26:18.201Z,101598.56
2018-05-18T03:28:52.650Z,101596.44
2018-05-18T03:31:28.085Z,101595.14
2018-05-18T03:34:03.687Z,101595.70
2018-05-18T03:36:38.529Z,101599.73
2018-05-18T03:39:13.694Z,101595.44
2018-05-18T03:41:48.194Z,101588.81
2018-05-18T03:44:23.446Z,101594.20
2018-05-18T03:46:58.485Z,101591.17
2018-05-18T03:49:33.458Z,101599.92
2018-05-18T03:52:08.051Z,101597.36
2018-05-18T03:54:42.994Z,101599.42
2018-05-18T03:57:18.018Z,101597.64
2018-05-18T03:59:52.490Z,101608.34
2018-05-18T04:02:38.155Z,101603.67
2018-05-18T04:05:24.118Z,101607.55
2018-05-18T04:08:09.678Z,101610.74
2018-05-18T04:10:44.578Z,101610.64
2018-05-18T04:13:19.489Z,101612.27
2018-05-18T04:15:54.126Z,101619.17
2018-05-18T04:18:29.127Z,101613.48
2018-05-18T04:21:03.738Z,101617.19
2018-05-18T04:23:38.440Z,101617.75
2018-05-18T04:26:13.554Z,101616.56
2018-05-18T04:28:48.025Z,101615.59
2018-05-18T04:31:22.846Z,101621.61
2018-05-18T04:33:57.581Z,101625.44
2018-05-18T04:36:32.958Z,101612.59
2018-05-18T04:39:08.151Z,101622.05
2018-05-18T04:41:43.046Z,101616.77
2018-05-18T04:44:17.986Z,101615.52
2018-05-18T04:46:52.659Z,101620.23
2018-05-18T04:49:27.765Z,101623.48
2018-05-18T04:52:02.706Z,101627.54
2018-05-18T04:54:37.607Z,101627.41
2018-05-18T04:57:12.211Z,101626.78
2018-05-18T04:59:47.239Z,101628.54
2018-05-18T05:02:21.976Z,101634.19
2018-05-18T05:04:56.946Z,101627.89
2018-05-18T05:07:31.641Z,101636.31
2018-05-18T05:10:06.730Z,101628.91
2018-05-18T05:12:41.277Z,101632.77
2018-05-18T05:15:17.082Z,101632.81
2018-05-18T05:17:52.201Z,101639.34
2018-05-18T05:20:27.049Z,101641.56
2018-05-18T05:23:02.076Z,101647.37
2018-05-18T05:25:37.084Z,101647.86
2018-05-18T05:28:11.710Z,101648.19
2018-05-18T05:30:46.809Z,101651.40
2018-05-18T05:33:21.753Z,101658.59
2018-05-18T05:35:56.338Z,101661.45
2018-05-18T05:38:31.358Z,101660.33
2018-05-18T05:41:05.911Z,101655.28
2018-05-18T05:43:40.846Z,101659.48
2018-05-18T05:46:15.665Z,101658.02
2018-05-18T05:48:50.188Z,101662.73
2018-05-18T05:51:25.084Z,101668.31
2018-05-18T05:54:00.015Z,101668.11
2018-05-18T05:56:34.841Z,101661.67
2018-05-18T05:59:09.986Z,101668.28
2018-05-18T06:01:44.885Z,101678.72
2018-05-18T06:04:20.078Z,101673.00
2018-05-18T06:06:54.877Z,101676.66
2018-05-18T06:09:30.037Z,101677.09
2018-05-18T06:12:04.550Z,101684.61
2018-05-18T06:14:39.720Z,101687.58
2018-05-18T06:17:14.365Z,101683.09
2018-05-18T06:19:49.253Z,101683.12
2018-05-18T06:22:24.312Z,101692.48
2018-05-18T06:24:59.366Z,101693.20
2018-05-18T06:27:34.367Z,101693.81
2018-05-18T06:30:09.833Z,101694.41
2018-05-18T06:32:44.750Z,101694.41
2018-05-18T06:35:19.389Z,101693.20
2018-05-18T06:37:54.161Z,101690.92
2018-05-18T06:40:29.145Z,101694.20
2018-05-18T06:43:03.769Z,101704.11
2018-05-18T06:45:38.938Z,101700.22
2018-05-18T06:48:13.921Z,101703.91
2018-05-18T06:50:49.043Z,101704.68
2018-05-18T06:53:23.443Z,101699.83
2018-05-18T06:55:58.376Z,101696.30
2018-05-18T06:58:33.414Z,101690.72
2018-05-18T07:01:08.446Z,101693.19
2018-05-18T07:03:43.948Z,101695.15
2018-05-18T07:06:19.212Z,101699.54
2018-05-18T07:08:53.970Z,101700.64
2018-05-18T07:11:29.255Z,101693.41
2018-05-18T07:14:04.117Z,101695.79
2018-05-18T07:16:39.132Z,101691.67
2018-05-18T07:19:14.114Z,101699.72
2018-05-18T07:21:49.022Z,101699.99
2018-05-18T07:24:24.255Z,101702.55
2018-05-18T07:26:59.299Z,101700.52
2018-05-18T07:29:35.190Z,101700.85
2018-05-18T07:32:10.539Z,101705.71
2018-05-18T07:34:45.154Z,101701.99
2018-05-18T07:37:20.446Z,101697.02
2018-05-18T07:39:55.226Z,101694.13
2018-05-18T07:42:30.394Z,101691.04
2018-05-18T07:45:04.847Z,101694.06
2018-05-18T07:47:40.130Z,101697.78
2018-05-18T07:50:15.298Z,101699.71
2018-05-18T07:52:50.703Z,101704.30
2018-05-18T07:55:25.434Z,101704.09
2018-05-18T07:58:00.460Z,101703.89
2018-05-18T08:00:35.491Z,101702.55
2018-05-18T08:03:10.322Z,101699.55
2018-05-18T08:05:45.394Z,101697.53
2018-05-18T08:08:20.737Z,101704.31
2018-05-18T08:10:55.250Z,101702.70
2018-05-18T08:13:30.362Z,101706.88
2018-05-18T08:16:05.062Z,101704.31
2018-05-18T08:18:40.239Z,101701.99
2018-05-18T08:21:15.317Z,101694.53
2018-05-18T08:23:50.494Z,101696.25
2018-05-18T08:26:25.397Z,101701.28
2018-05-18T08:29:11.596Z,101704.37
2018-05-18T08:31:46.255Z,101695.23
2018-05-18T08:34:21.210Z,101705.33
2018-05-18T08:36:56.341Z,101710.97
2018-05-18T08:39:31.482Z,101712.58
2018-05-18T08:42:06.026Z,101713.34
2018-05-18T08:44:40.602Z,101711.19
2018-05-18T08:47:16.090Z,101716.36
2018-05-18T08:49:51.268Z,101717.19
2018-05-18T08:52:26.714Z,101714.78
2018-05-18T08:55:01.408Z,101711.11
2018-05-18T08:57:36.375Z,101717.25
2018-05-18T09:00:11.626Z,101710.89
2018-05-18T09:02:46.523Z,101719.30
2018-05-18T09:05:21.622Z,101719.83
2018-05-18T09:07:56.327Z,101717.25
2018-05-18T09:10:31.523Z,101714.09
2018-05-18T09:13:06.292Z,101721.66
2018-05-18T09:15:41.267Z,101720.13
2018-05-18T09:18:17.631Z,101723.41
2018-05-18T09:20:52.426Z,101729.03
2018-05-18T09:23:27.423Z,101723.52
2018-05-18T09:26:02.746Z,101725.01
2018-05-18T09:28:37.913Z,101725.47
2018-05-18T09:31:13.228Z,101723.20
2018-05-18T09:33:48.781Z,101713.81
2018-05-18T09:36:23.680Z,101714.92
2018-05-18T09:38:58.801Z,101715.81
2018-05-18T09:41:33.708Z,101714.70
2018-05-18T09:44:08.549Z,101712.45
2018-05-18T09:46:43.107Z,101723.84
2018-05-18T09:49:18.370Z,101718.50
2018-05-18T09:51:53.266Z,101720.84
2018-05-18T09:54:28.014Z,101721.39
2018-05-18T09:57:02.541Z,101722.30
2018-05-18T09:59:37.489Z,101714.80
2018-05-18T10:02:12.490Z,101717.48
2018-05-18T10:04:47.451Z,101721.02
2018-05-18T10:07:22.585Z,101720.82
2018-05-18T10:09:57.466Z,101716.97
2018-05-18T10:12:32.767Z,101716.95
2018-05-18T10:15:07.183Z,101723.62
2018-05-18T10:17:42.040Z,101724.16
2018-05-18T10:20:17.530Z,101726.04
2018-05-18T10:22:52.426Z,101724.44
2018-05-18T10:25:26.934Z,101718.45
2018-05-18T10:28:02.507Z,101716.84
2018-05-18T10:30:37.013Z,101717.17
2018-05-18T10:33:11.842Z,101716.05
2018-05-18T10:35:46.937Z,101713.58
2018-05-18T10:38:21.792Z,101702.65
2018-05-18T10:40:56.616Z,101704.41
2018-05-18T10:43:31.648Z,101709.63
2018-05-18T10:46:06.203Z,101700.69
2018-05-18T10:48:41.603Z,101701.44
2018-05-18T10:51:17.071Z,101710.08
2018-05-18T10:53:52.018Z,101704.20
2018-05-18T10:56:27.591Z,101709.50
2018-05-18T10:59:02.426Z,101710.70
2018-05-18T11:01:37.587Z,101710.67
2018-05-18T11:04:12.575Z,101711.15
2018-05-18T11:06:47.667Z,101704.92
2018-05-18T11:09:23.098Z,101700.56
2018-05-18T11:11:58.109Z,101700.91
2018-05-18T11:14:33.607Z,101694.29
2018-05-18T11:17:08.671Z,101706.30
2018-05-18T11:19:43.794Z,101699.94
2018-05-18T11:22:18.610Z,101698.30
2018-05-18T11:24:53.861Z,101696.33
2018-05-18T11:27:29.194Z,101693.91
2018-05-18T11:30:03.769Z,101692.02
2018-05-18T11:32:39.106Z,101681.17
2018-05-18T11:35:14.214Z,101689.59
2018-05-18T11:37:49.264Z,101683.42
2018-05-18T11:40:24.202Z,101678.63
2018-05-18T11:42:59.653Z,101681.39
2018-05-18T11:45:34.264Z,101680.05
2018-05-18T11:48:08.836Z,101681.64
2018-05-18T11:50:43.714Z,101681.07
2018-05-18T11:53:18.745Z,101679.85
2018-05-18T11:55:53.681Z,101670.95
2018-05-18T11:58:28.802Z,101669.03
2018-05-18T12:01:03.874Z,101664.56
2018-05-18T12:03:38.793Z,101669.17
2018-05-18T12:06:13.863Z,101659.46
2018-05-18T12:08:48.682Z,101668.53
2018-05-18T12:11:23.193Z,101661.09
2018-05-18T12:13:58.167Z,101654.28
2018-05-18T12:16:33.330Z,101654.84
2018-05-18T12:19:08.130Z,101651.79
2018-05-18T12:21:43.633Z,101659.58
2018-05-18T12:24:19.070Z,101656.23
2018-05-18T12:26:54.749Z,101655.58
2018-05-18T12:29:30.035Z,101653.63
2018-05-18T12:32:04.670Z,101649.43
2018-05-18T12:34:39.841Z,101652.22
2018-05-18T12:37:14.778Z,101653.22
2018-05-18T12:39:49.825Z,101649.67
2018-05-18T12:42:24.829Z,101649.47
2018-05-18T12:44:59.942Z,101641.25
2018-05-18T12:47:35.069Z,101652.19
2018-05-18T12:50:09.986Z,101646.05
2018-05-18T12:52:45.195Z,101645.31
2018-05-18T12:55:20.215Z,101641.02
2018-05-18T12:57:55.030Z,101647.78
2018-05-18T13:00:30.397Z,101651.77
2018-05-18T13:03:05.974Z,101643.03
2018-05-18T13:05:40.577Z,101642.53
2018-05-18T13:08:16.106Z,101652.17
2018-05-18T13:10:50.954Z,101646.39
2018-05-18T13:13:26.334Z,101639.45
2018-05-18T13:16:01.427Z,101642.01
2018-05-18T13:18:36.330Z,101636.59
2018-05-18T13:21:11.530Z,101636.43
2018-05-18T13:23:46.878Z,101626.28
2018-05-18T13:26:21.893Z,101630.94
2018-05-18T13:28:57.319Z,101630.95
2018-05-18T13:31:32.578Z,101633.13
2018-05-18T13:34:08.012Z,101633.02
2018-05-18T13:36:42.982Z,101630.02
2018-05-18T13:39:18.290Z,101622.66
2018-05-18T13:41:52.902Z,101625.97
2018-05-18T13:44:28.187Z,101622.83
2018-05-18T13:47:03.138Z,101620.78
2018-05-18T13:49:37.742Z,101617.50
2018-05-18T13:52:12.386Z,101627.84
2018-05-18T13:54:47.047Z,101622.70
2018-05-18T13:57:22.265Z,101620.48
2018-05-18T13:59:57.258Z,101620.27
2018-05-18T14:02:32.479Z,101615.41
2018-05-18T14:05:07.174Z,101615.44
2018-05-18T14:07:42.167Z,101617.08
2018-05-18T14:10:18.442Z,101617.29
2018-05-18T14:12:53.537Z,101612.30
2018-05-18T14:15:28.491Z,101612.22
2018-05-18T14:18:03.522Z,101616.34
2018-05-18T14:20:38.950Z,101606.75
2018-05-18T14:23:13.601Z,101606.80
2018-05-18T14:25:49.115Z,101608.87
2018-05-18T14:28:24.395Z,101609.06
2018-05-18T14:30:59.423Z,101607.61
2018-05-18T14:33:35.006Z,101611.86
2018-05-18T14:36:10.187Z,101608.68
2018-05-18T14:38:45.549Z,101606.91
2018-05-18T14:41:20.534Z,101603.88
2018-05-18T14:43:55.660Z,101601.28
2018-05-18T14:46:31.079Z,101592.27
2018-05-18T14:49:05.841Z,101596.13
2018-05-18T14:51:40.420Z,101590.16
2018-05-18T14:54:15.218Z,101596.63
2018-05-18T14:56:50.841Z,101584.64
2018-05-18T14:59:26.406Z,101586.66
2018-05-18T15:02:01.166Z,101589.86
2018-05-18T15:04:36.030Z,101593.37
2018-05-18T15:07:11.313Z,101593.58
2018-05-18T15:09:46.350Z,101588.61
2018-05-18T15:12:21.547Z,101587.05
2018-05-18T15:14:56.381Z,101581.06
2018-05-18T15:17:31.450Z,101585.39
2018-05-18T15:20:05.879Z,101585.66
2018-05-18T15:22:41.194Z,101591.08
2018-05-18T15:25:16.368Z,101581.05
2018-05-18T15:27:51.349Z,101589.69
2018-05-18T15:30:26.622Z,101593.20
2018-05-18T15:33:01.371Z,101580.70
2018-05-18T15:35:36.363Z,101581.35
2018-05-18T15:38:11.255Z,101585.84
2018-05-18T15:40:46.339Z,101590.80
2018-05-18T15:43:21.067Z,101581.05
2018-05-18T15:45:56.297Z,101582.67
2018-05-18T15:48:31.563Z,101586.06
2018-05-18T15:51:06.110Z,101585.77
2018-05-18T15:53:40.686Z,101583.56
2018-05-18T15:56:15.306Z,101582.86
2018-05-18T15:58:50.383Z,101585.30
2018-05-18T16:01:25.746Z,101591.81
2018-05-18T16:04:00.523Z,101584.05
2018-05-18T16:06:35.422Z,101585.94
2018-05-18T16:09:10.410Z,101584.08
2018-05-18T16:11:45.206Z,101581.57
2018-05-18T16:14:19.940Z,101585.22
2018-05-18T16:16:55.343Z,101581.32
2018-05-18T16:19:29.898Z,101586.93
2018-05-18T16:22:04.735Z,101583.59
2018-05-18T16:24:39.451Z,101584.75
2018-05-18T16:27:14.476Z,101588.45
2018-05-18T16:29:49.159Z,101583.11
2018-05-18T16:32:24.835Z,101579.09
2018-05-18T16:34:59.743Z,101579.89
2018-05-18T16:37:35.257Z,101582.40
2018-05-18T16:40:10.843Z,101582.25
2018-05-18T16:42:45.804Z,101583.20
2018-05-18T16:45:20.915Z,101589.52
2018-05-18T16:47:55.862Z,101593.00
2018-05-18T16:50:30.926Z,101599.31
2018-05-18T16:53:05.654Z,101590.00
2018-05-18T16:55:40.105Z,101593.44
2018-05-18T16:58:14.954Z,101597.40
2018-05-18T17:00:49.855Z,101601.58
2018-05-18T17:03:25.051Z,101601.52
2018-05-18T17:06:00.014Z,101596.53
2018-05-18T17:08:35.958Z,101600.56
2018-05-18T17:11:10.705Z,101601.02
2018-05-18T17:13:45.765Z,101595.41
2018-05-18T17:16:21.346Z,101595.67
2018-05-18T17:18:56.540Z,101597.95
2018-05-18T17:21:31.981Z,101598.64
2018-05-18T17:24:06.391Z,101597.29
2018-05-18T17:26:40.825Z,101595.81
2018-05-18T17:29:16.074Z,101597.69
2018-05-18T17:31:51.049Z,101591.75
2018-05-18T17:34:26.550Z,101591.10
2018-05-18T17:37:01.403Z,101593.06
2018-05-18T17:39:36.934Z,101593.75
2018-05-18T17:42:11.971Z,101596.20
2018-05-18T17:44:46.737Z,101601.38
2018-05-18T17:47:21.930Z,101596.25
2018-05-18T17:49:57.404Z,101599.17
2018-05-18T17:52:33.059Z,101605.72
2018-05-18T17:55:07.607Z,101603.55
2018-05-18T17:57:42.918Z,101602.78
2018-05-18T18:00:18.859Z,101606.46
2018-05-18T18:02:53.979Z,101599.34
2018-05-18T18:05:28.738Z,101601.69
2018-05-18T18:08:03.902Z,101598.26
2018-05-18T18:10:39.235Z,101594.95
2018-05-18T18:13:14.550Z,101603.15
2018-05-18T18:15:49.390Z,101595.59
2018-05-18T18:18:24.418Z,101603.33
2018-05-18T18:20:59.450Z,101598.97
2018-05-18T18:23:34.802Z,101606.28
2018-05-18T18:26:09.851Z,101610.25
2018-05-18T18:28:44.297Z,101609.45
2018-05-18T18:31:20.935Z,101610.52
2018-05-18T18:33:55.551Z,101606.30
2018-05-18T18:36:30.799Z,101609.69
2018-05-18T18:39:06.484Z,101610.69
2018-05-18T18:41:41.530Z,101618.05
2018-05-18T18:44:17.139Z,101624.89
2018-05-18T18:46:51.976Z,101620.43
2018-05-18T18:49:26.898Z,101620.31
2018-05-18T18:52:01.754Z,101626.14
2018-05-18T18:54:36.419Z,101627.95
2018-05-18T18:57:11.390Z,101625.38
2018-05-18T18:59:46.980Z,101622.52
2018-05-18T19:02:22.038Z,101629.22
2018-05-18T19:04:57.022Z,101620.76
2018-05-18T19:07:32.181Z,101634.98
2018-05-18T19:10:07.175Z,101635.87
2018-05-18T19:12:42.426Z,101643.51
2018-05-18T19:15:17.122Z,101644.20
2018-05-18T19:17:52.491Z,101646.51
2018-05-18T19:20:28.042Z,101654.17
2018-05-18T19:23:03.042Z,101654.59
2018-05-18T19:25:38.262Z,101657.30
2018-05-18T19:28:13.202Z,101666.83
2018-05-18T19:30:48.360Z,101668.06
2018-05-18T19:33:23.461Z,101668.16
2018-05-18T19:36:00.309Z,101675.25
2018-05-18T19:38:35.214Z,101668.12
2018-05-18T19:41:10.178Z,101678.36
2018-05-18T19:43:45.402Z,101676.23
2018-05-18T19:46:20.210Z,101678.79
2018-05-18T19:48:55.327Z,101684.37
2018-05-18T19:51:30.647Z,101685.73
2018-05-18T19:54:05.340Z,101688.11
2018-05-18T19:56:40.705Z,101687.12
2018-05-18T19:59:16.110Z,101689.72
2018-05-18T20:01:51.106Z,101688.11
2018-05-18T20:04:26.394Z,101696.34
2018-05-18T20:07:00.938Z,101693.03
2018-05-18T20:09:36.254Z,101691.73
2018-05-18T20:12:11.263Z,101692.59
2018-05-18T20:14:46.271Z,101694.45
2018-05-18T20:17:21.255Z,101688.70
2018-05-18T20:19:56.150Z,101703.78
2018-05-18T20:22:31.443Z,101703.92
2018-05-18T20:25:06.564Z,101703.28
2018-05-18T20:27:41.753Z,101701.40
2018-05-18T20:30:17.171Z,101704.14
2018-05-18T20:32:52.095Z,101710.48
2018-05-18T20:35:27.525Z,101708.28
2018-05-18T20:38:04.202Z,101715.65
2018-05-18T20:40:39.703Z,101709.56
2018-05-18T20:43:15.294Z,101710.03
2018-05-18T20:45:50.003Z,101709.50
2018-05-18T20:48:26.226Z,101708.42
2018-05-18T20:51:01.754Z,101719.06
2018-05-18T20:53:37.750Z,101721.63
2018-05-18T20:56:13.480Z,101719.64
2018-05-18T20:58:49.766Z,101723.06
2018-05-18T21:01:24.847Z,101719.84
2018-05-18T21:03:59.932Z,101717.26
2018-05-18T21:06:35.508Z,101725.53
2018-05-18T21:09:14.270Z,101721.41
2018-05-18T21:11:50.089Z,101724.59
2018-05-18T21:14:26.142Z,101726.33
2018-05-18T21:17:02.544Z,101733.43
2018-05-18T21:19:37.910Z,101729.20
2018-05-18T21:22:14.568Z,101732.34
2018-05-18T21:24:49.594Z,101731.91
2018-05-18T21:27:24.565Z,101726.83
2018-05-18T21:29:59.366Z,101732.67
2018-05-18T21:32:35.618Z,101730.27
2018-05-18T21:35:10.514Z,101739.31
2018-05-18T21:37:45.401Z,101736.53
2018-05-18T21:40:21.002Z,101736.55
2018-05-18T21:42:55.694Z,101738.92
2018-05-18T21:45:30.937Z,101741.97
2018-05-18T21:48:05.583Z,101745.91
2018-05-18T21:50:40.902Z,101746.25
2018-05-18T21:53:15.942Z,101747.11
2018-05-18T21:55:51.362Z,101750.20
2018-05-18T21:58:26.710Z,101754.70
2018-05-18T22:01:01.758Z,101753.86
2018-05-18T22:03:37.558Z,101758.50
2018-05-18T22:06:12.562Z,101759.73
2018-05-18T22:08:47.618Z,101759.53
2018-05-18T22:11:22.500Z,101764.23
2018-05-18T22:13:57.762Z,101766.61
2018-05-18T22:16:33.395Z,101769.25
2018-05-18T22:19:08.358Z,101766.80
2018-05-18T22:21:43.591Z,101762.27
2018-05-18T22:24:19.854Z,101757.66
2018-05-18T22:26:54.668Z,101766.75
2018-05-18T22:29:29.978Z,101767.05
2018-05-18T22:32:04.756Z,101768.06
2018-05-18T22:34:39.590Z,101766.36
2018-05-18T22:37:14.939Z,101766.04
2018-05-18T22:39:49.925Z,101766.16
2018-05-18T22:42:25.059Z,101766.31
2018-05-18T22:44:59.821Z,101762.78
2018-05-18T22:47:34.939Z,101763.42
2018-05-18T22:50:10.546Z,101756.72
2018-05-18T22:52:45.570Z,101757.47
2018-05-18T22:55:20.958Z,101752.88
2018-05-18T22:57:56.579Z,101756.16
2018-05-18T23:00:31.974Z,101756.10
2018-05-18T23:03:06.718Z,101751.17
2018-05-18T23:05:41.702Z,101754.62
2018-05-18T23:08:16.562Z,101748.97
2018-05-18T23:10:51.127Z,101758.63
2018-05-18T23:13:26.414Z,101754.21
2018-05-18T23:16:01.590Z,101751.61
2018-05-18T23:18:36.882Z,101754.88
2018-05-18T23:21:12.270Z,101755.58
2018-05-18T23:23:47.326Z,101760.52
2018-05-18T23:26:22.662Z,101767.60
2018-05-18T23:28:57.679Z,101760.88
2018-05-18T23:31:32.881Z,101763.52
2018-05-18T23:34:07.259Z,101762.64
2018-05-18T23:36:42.502Z,101753.71
2018-05-18T23:39:17.223Z,101754.59
2018-05-18T23:41:52.269Z,101760.83
2018-05-18T23:44:27.206Z,101764.53
2018-05-18T23:47:01.663Z,101763.80
2018-05-18T23:49:36.783Z,101756.63
2018-05-18T23:52:11.761Z,101758.30
2018-05-18T23:54:47.979Z,101749.61
2018-05-18T23:57:23.089Z,101751.34
2018-05-18T23:59:57.874Z,101745.11
